Time;durP1;ratioP1;P1;durP2;ratioP2;P2;SDS_P1;SDS_P2;PMS_P1;PMS_P2;Temp;Humidity;BMP_temperature;BMP_pressure;BME280_temperature;BME280_humidity;BME280_pressure;Samples;Min_cycle;Max_cycle;Signal;HPM_P1;HPM_P2
2024/02/20 00:02:03;;;;;;;7.35;2.67;;;;;;;;;;4994159;28;20085;-79
2024/02/20 00:04:30;;;;;;;5.68;2.55;;;;;;;;;;4994094;28;20054;-79
2024/02/20 00:06:57;;;;;;;8.05;3.28;;;;;;;;;;4994077;28;20452;-78
2024/02/20 00:09:24;;;;;;;5.60;2.90;;;;;;;;;;4993410;28;20049;-79
2024/02/20 00:11:51;;;;;;;6.72;3.60;;;;;;;;;;4994018;28;20054;-78
2024/02/20 00:14:17;;;;;;;6.10;3.50;;;;;;;;;;4993731;28;20054;-77
2024/02/20 00:16:46;;;;;;;6.57;3.83;;;;;;;;;;4994047;28;20050;-78
2024/02/20 00:19:13;;;;;;;7.15;4.38;;;;;;;;;;4993461;28;20050;-78
2024/02/20 00:21:41;;;;;;;5.15;3.63;;;;;;;;;;4993769;28;20043;-77
2024/02/20 00:24:08;;;;;;;7.45;4.18;;;;;;;;;;4993254;28;20057;-77
2024/02/20 00:26:35;;;;;;;6.57;3.97;;;;;;;;;;4993772;28;20061;-78
2024/02/20 00:29:02;;;;;;;8.85;4.32;;;;;;;;;;4993857;28;20049;-78
2024/02/20 00:31:32;;;;;;;7.18;4.07;;;;;;;;;;4993250;28;20046;-79
2024/02/20 00:34:00;;;;;;;8.35;3.95;;;;;;;;;;4993587;28;20433;-79
2024/02/20 00:36:27;;;;;;;6.57;3.70;;;;;;;;;;4993217;28;20042;-78
2024/02/20 00:38:53;;;;;;;8.63;4.50;;;;;;;;;;4993559;28;20046;-79
2024/02/20 00:41:20;;;;;;;14.70;4.82;;;;;;;;;;4993096;28;20049;-79
2024/02/20 00:43:47;;;;;;;14.55;4.65;;;;;;;;;;4993535;28;20387;-77
2024/02/20 00:46:22;;;;;;;14.15;3.97;;;;;;;;;;4993029;28;20050;-79
2024/02/20 00:48:50;;;;;;;15.52;4.88;;;;;;;;;;4993320;28;20108;-78
2024/02/20 00:51:19;;;;;;;19.10;4.88;;;;;;;;;;4993239;28;20046;-78
2024/02/20 00:53:46;;;;;;;17.95;4.82;;;;;;;;;;4992324;28;20133;-80
2024/02/20 00:56:13;;;;;;;22.38;4.78;;;;;;;;;;4993081;28;20057;-78
2024/02/20 00:58:45;;;;;;;21.33;4.85;;;;;;;;;;4993409;28;20474;-78
2024/02/20 01:01:12;;;;;;;26.60;5.28;;;;;;;;;;4992940;28;20057;-78
2024/02/20 01:03:42;;;;;;;27.85;5.85;;;;;;;;;;4993335;28;20050;-79
2024/02/20 01:06:13;;;;;;;19.90;4.68;;;;;;;;;;4992912;28;20077;-78
2024/02/20 01:08:39;;;;;;;27.33;5.10;;;;;;;;;;4993342;28;20042;-79
2024/02/20 01:11:07;;;;;;;18.48;4.13;;;;;;;;;;4994016;28;20053;-79
2024/02/20 01:13:33;;;;;;;23.13;4.00;;;;;;;;;;4997284;28;20093;-79
2024/02/20 01:16:00;;;;;;;18.45;3.17;;;;;;;;;;4997213;28;20046;-78
2024/02/20 01:18:27;;;;;;;15.20;3.05;;;;;;;;;;4996705;28;20038;-78
2024/02/20 01:20:54;;;;;;;15.57;2.88;;;;;;;;;;4996227;28;20077;-78
2024/02/20 01:23:22;;;;;;;11.18;2.70;;;;;;;;;;4996717;28;20065;-78
2024/02/20 01:25:48;;;;;;;20.10;2.67;;;;;;;;;;4996978;28;20050;-78
2024/02/20 01:28:15;;;;;;;11.57;2.40;;;;;;;;;;4996646;28;20066;-78
2024/02/20 01:30:44;;;;;;;14.82;3.10;;;;;;;;;;4997274;28;20069;-79
2024/02/20 01:33:11;;;;;;;13.60;2.58;;;;;;;;;;4996639;28;20046;-78
2024/02/20 01:35:38;;;;;;;10.18;2.00;;;;;;;;;;4979651;28;20034;-78
2024/02/20 01:38:05;;;;;;;9.73;1.88;;;;;;;;;;4996657;28;20053;-78
2024/02/20 01:40:32;;;;;;;6.35;1.70;;;;;;;;;;4996848;28;20133;-78
2024/02/20 01:43:01;;;;;;;7.80;1.90;;;;;;;;;;4996860;28;20113;-78
2024/02/20 01:45:29;;;;;;;5.10;1.75;;;;;;;;;;4996324;28;20059;-79
2024/02/20 01:47:57;;;;;;;7.35;1.75;;;;;;;;;;4996801;28;20050;-78
2024/02/20 01:50:24;;;;;;;7.05;2.20;;;;;;;;;;4995959;28;20042;-79
2024/02/20 01:52:51;;;;;;;5.28;1.80;;;;;;;;;;4996769;28;20070;-79
2024/02/20 01:55:22;;;;;;;3.30;2.03;;;;;;;;;;4996191;28;20104;-78
2024/02/20 01:57:48;;;;;;;3.80;1.55;;;;;;;;;;4996488;28;20080;-80
2024/02/20 02:00:17;;;;;;;5.10;1.92;;;;;;;;;;4994882;28;20046;-79
2024/02/20 02:02:47;;;;;;;5.95;1.90;;;;;;;;;;4995445;28;20046;-78
2024/02/20 02:05:14;;;;;;;4.13;2.40;;;;;;;;;;4996021;28;20069;-77
2024/02/20 02:07:41;;;;;;;4.60;2.42;;;;;;;;;;4995268;28;20053;-77
2024/02/20 02:10:08;;;;;;;8.20;2.70;;;;;;;;;;4995679;28;20101;-79
2024/02/20 02:12:35;;;;;;;5.35;2.50;;;;;;;;;;4996505;28;20054;-78
2024/02/20 02:15:02;;;;;;;6.70;2.53;;;;;;;;;;4996114;28;20047;-78
2024/02/20 02:17:29;;;;;;;5.38;2.53;;;;;;;;;;4995914;28;20054;-79
2024/02/20 02:19:56;;;;;;;7.18;2.60;;;;;;;;;;4996267;28;20050;-77
2024/02/20 02:22:22;;;;;;;6.90;2.75;;;;;;;;;;4994431;28;20074;-79
2024/02/20 02:24:49;;;;;;;9.30;3.08;;;;;;;;;;4996077;28;20045;-79
2024/02/20 02:27:16;;;;;;;3.45;2.40;;;;;;;;;;4995766;28;20378;-77
2024/02/20 02:29:43;;;;;;;6.38;2.70;;;;;;;;;;4995965;28;20039;-78
2024/02/20 02:32:09;;;;;;;6.15;2.90;;;;;;;;;;4995330;28;20046;-78
2024/02/20 02:34:36;;;;;;;7.18;2.75;;;;;;;;;;4995814;28;20042;-78
2024/02/20 02:37:03;;;;;;;7.43;2.72;;;;;;;;;;4996006;28;20127;-79
2024/02/20 02:39:30;;;;;;;7.88;3.30;;;;;;;;;;4978164;28;20065;-79
2024/02/20 02:41:56;;;;;;;5.43;2.58;;;;;;;;;;4994878;28;20418;-78
2024/02/20 02:44:23;;;;;;;5.97;2.88;;;;;;;;;;4995276;28;20065;-78
2024/02/20 02:46:50;;;;;;;7.40;2.90;;;;;;;;;;4995650;28;20490;-78
2024/02/20 02:49:17;;;;;;;6.63;2.40;;;;;;;;;;4995213;28;20069;-77
2024/02/20 02:51:44;;;;;;;6.43;2.42;;;;;;;;;;4995479;28;20222;-77
2024/02/20 02:54:11;;;;;;;6.47;3.00;;;;;;;;;;4993861;28;20054;-78
2024/02/20 02:56:37;;;;;;;6.65;3.00;;;;;;;;;;4995650;28;20054;-78
2024/02/20 02:59:04;;;;;;;7.53;3.40;;;;;;;;;;4995028;28;20038;-77
2024/02/20 03:01:31;;;;;;;12.27;2.85;;;;;;;;;;4995419;28;20055;-79
2024/02/20 03:03:58;;;;;;;5.35;2.28;;;;;;;;;;4995578;28;20043;-80
2024/02/20 03:06:25;;;;;;;4.07;1.65;;;;;;;;;;4994661;28;20042;-78
2024/02/20 03:08:52;;;;;;;5.70;1.90;;;;;;;;;;4995256;28;20058;-79
2024/02/20 03:11:19;;;;;;;3.28;1.40;;;;;;;;;;4994858;28;20054;-78
2024/02/20 03:13:46;;;;;;;4.30;1.90;;;;;;;;;;4995209;28;20067;-78
2024/02/20 03:16:13;;;;;;;6.03;2.25;;;;;;;;;;4994547;28;20046;-79
2024/02/20 03:18:42;;;;;;;4.40;1.48;;;;;;;;;;4995190;28;20371;-79
2024/02/20 03:21:09;;;;;;;;;;;;;;;;;;4994836;28;20042;-79
2024/02/20 03:23:36;;;;;;;3.72;1.50;;;;;;;;;;4995028;28;19922;-79
2024/02/20 03:26:03;;;;;;;4.13;1.50;;;;;;;;;;4995013;28;20064;-78
2024/02/20 03:28:30;;;;;;;3.22;1.40;;;;;;;;;;4994637;28;20039;-79
2024/02/20 03:30:58;;;;;;;3.40;1.35;;;;;;;;;;4994886;28;20042;-79
2024/02/20 03:33:26;;;;;;;4.07;1.60;;;;;;;;;;4994038;28;20042;-78
2024/02/20 03:35:53;;;;;;;7.25;1.60;;;;;;;;;;4994895;28;20097;-78
2024/02/20 03:38:20;;;;;;;4.53;1.60;;;;;;;;;;4994272;28;20043;-78
2024/02/20 03:40:47;;;;;;;7.22;1.90;;;;;;;;;;4994574;28;20042;-78
2024/02/20 03:43:13;;;;;;;6.78;1.60;;;;;;;;;;4994308;28;20123;-78
2024/02/20 03:45:40;;;;;;;6.72;1.95;;;;;;;;;;4994678;28;20070;-78
2024/02/20 03:48:07;;;;;;;5.10;1.67;;;;;;;;;;4994329;28;20074;-79
2024/02/20 03:50:34;;;;;;;5.93;1.83;;;;;;;;;;4994353;28;20054;-79
2024/02/20 03:53:02;;;;;;;4.07;1.50;;;;;;;;;;4994613;28;20088;-79
2024/02/20 03:55:33;;;;;;;4.20;1.70;;;;;;;;;;4994218;28;20053;-78
2024/02/20 03:58:00;;;;;;;7.25;1.60;;;;;;;;;;4994527;28;20134;-78
2024/02/20 04:00:27;;;;;;;8.32;1.95;;;;;;;;;;4993688;28;20565;-78
2024/02/20 04:02:56;;;;;;;5.80;2.20;;;;;;;;;;4994232;28;20058;-78
2024/02/20 04:05:23;;;;;;;3.50;2.00;;;;;;;;;;4993564;28;20046;-78
2024/02/20 04:07:50;;;;;;;8.30;2.35;;;;;;;;;;4994307;28;20038;-78
2024/02/20 04:10:17;;;;;;;13.15;2.33;;;;;;;;;;4993576;28;20469;-78
2024/02/20 04:12:45;;;;;;;7.32;2.15;;;;;;;;;;4994140;28;20474;-79
2024/02/20 04:15:13;;;;;;;4.40;1.80;;;;;;;;;;4993391;28;20052;-77
2024/02/20 04:17:40;;;;;;;5.32;2.10;;;;;;;;;;4994111;28;20061;-78
2024/02/20 04:20:09;;;;;;;6.22;2.20;;;;;;;;;;4993519;28;20046;-79
2024/02/20 04:22:39;;;;;;;5.82;2.28;;;;;;;;;;4994213;28;20069;-78
2024/02/20 04:25:07;;;;;;;7.40;2.28;;;;;;;;;;4993196;28;20081;-78
2024/02/20 04:27:37;;;;;;;4.47;2.07;;;;;;;;;;4994100;28;20105;-78
2024/02/20 04:30:07;;;;;;;5.60;2.38;;;;;;;;;;4993984;28;20390;-78
2024/02/20 04:32:34;;;;;;;6.65;2.40;;;;;;;;;;4993597;28;20046;-79
2024/02/20 04:35:01;;;;;;;7.30;2.90;;;;;;;;;;4993612;28;20038;-78
2024/02/20 04:37:28;;;;;;;8.30;3.03;;;;;;;;;;4992170;28;20042;-79
2024/02/20 04:39:55;;;;;;;8.07;3.22;;;;;;;;;;4993821;28;20050;-79
2024/02/20 04:42:22;;;;;;;9.02;3.33;;;;;;;;;;4993137;28;20046;-79
2024/02/20 04:44:50;;;;;;;9.50;3.42;;;;;;;;;;4993146;28;20363;-78
2024/02/20 04:47:17;;;;;;;8.75;2.90;;;;;;;;;;4992912;28;20050;-79
2024/02/20 04:49:47;;;;;;;10.93;3.58;;;;;;;;;;4993679;28;20053;-78
2024/02/20 04:52:14;;;;;;;8.88;3.47;;;;;;;;;;4992889;28;20064;-78
2024/02/20 04:54:41;;;;;;;10.30;3.35;;;;;;;;;;4993448;28;20100;-79
2024/02/20 04:57:08;;;;;;;9.48;3.20;;;;;;;;;;4992981;28;20046;-79
2024/02/20 04:59:35;;;;;;;15.30;4.20;;;;;;;;;;4993382;28;20486;-78
2024/02/20 05:02:02;;;;;;;8.48;3.67;;;;;;;;;;4993566;28;20057;-78
2024/02/20 05:04:29;;;;;;;8.63;3.78;;;;;;;;;;4992884;28;20552;-78
2024/02/20 05:06:56;;;;;;;10.68;4.00;;;;;;;;;;4993415;28;20056;-78
2024/02/20 05:09:24;;;;;;;10.48;3.90;;;;;;;;;;4992725;28;20047;-79
2024/02/20 05:11:50;;;;;;;11.77;3.78;;;;;;;;;;4993564;28;20051;-78
2024/02/20 05:14:17;;;;;;;7.68;3.22;;;;;;;;;;4991719;28;20448;-77
2024/02/20 05:16:44;;;;;;;7.65;3.13;;;;;;;;;;4993068;28;20474;-78
2024/02/20 05:19:11;;;;;;;9.43;2.88;;;;;;;;;;4992804;28;20478;-77
2024/02/20 05:21:39;;;;;;;6.53;3.35;;;;;;;;;;4993212;28;20482;-78
2024/02/20 05:24:06;;;;;;;11.88;3.22;;;;;;;;;;4992846;28;20047;-78
2024/02/20 05:26:33;;;;;;;9.55;3.40;;;;;;;;;;4993290;28;20405;-78
2024/02/20 05:28:59;;;;;;;9.00;3.70;;;;;;;;;;4993308;28;20477;-78
2024/02/20 05:31:28;;;;;;;11.02;4.10;;;;;;;;;;4992797;28;20038;-78
2024/02/20 05:33:56;;;;;;;11.02;3.67;;;;;;;;;;4993060;28;20093;-81
2024/02/20 05:36:29;;;;;;;12.18;2.85;;;;;;;;;;4992626;28;20047;-79
2024/02/20 05:38:59;;;;;;;9.40;3.28;;;;;;;;;;4993324;28;20046;-79
2024/02/20 05:41:30;;;;;;;11.48;3.10;;;;;;;;;;4992363;28;20050;-78
2024/02/20 05:43:58;;;;;;;11.75;2.95;;;;;;;;;;4993186;28;20042;-78
2024/02/20 05:46:29;;;;;;;16.90;4.03;;;;;;;;;;4991422;28;20057;-78
2024/02/20 05:48:56;;;;;;;8.95;3.33;;;;;;;;;;4992642;28;20065;-78
2024/02/20 05:51:27;;;;;;;11.45;3.45;;;;;;;;;;4991579;28;20034;-78
2024/02/20 05:53:54;;;;;;;9.48;3.30;;;;;;;;;;4992628;28;20035;-78
2024/02/20 05:56:21;;;;;;;9.88;3.60;;;;;;;;;;4992083;28;20159;-78
2024/02/20 05:58:48;;;;;;;10.50;3.28;;;;;;;;;;4996115;28;20039;-79
2024/02/20 06:01:17;;;;;;;7.10;2.58;;;;;;;;;;4995640;28;20041;-79
2024/02/20 06:03:45;;;;;;;6.68;2.70;;;;;;;;;;4993510;28;20038;-79
2024/02/20 06:06:12;;;;;;;5.88;2.80;;;;;;;;;;4995593;28;20439;-79
2024/02/20 06:08:42;;;;;;;6.50;2.45;;;;;;;;;;4996033;28;20046;-78
2024/02/20 06:11:17;;;;;;;6.20;2.40;;;;;;;;;;4995322;28;20097;-80
2024/02/20 06:13:45;;;;;;;5.40;2.60;;;;;;;;;;4990670;28;20050;-79
2024/02/20 06:16:12;;;;;;;7.95;3.13;;;;;;;;;;4995232;28;20414;-79
2024/02/20 06:18:39;;;;;;;6.38;2.72;;;;;;;;;;4995464;28;20110;-79
2024/02/20 06:21:08;;;;;;;5.88;2.75;;;;;;;;;;4995738;28;20035;-79
2024/02/20 06:23:38;;;;;;;9.23;2.85;;;;;;;;;;4996395;28;20070;-78
2024/02/20 06:26:06;;;;;;;4.53;2.10;;;;;;;;;;4995579;28;20042;-79
2024/02/20 06:28:35;;;;;;;7.97;2.60;;;;;;;;;;4996114;28;20046;-79
2024/02/20 06:31:07;;;;;;;8.07;3.47;;;;;;;;;;4995921;28;20088;-78
2024/02/20 06:33:34;;;;;;;12.73;3.50;;;;;;;;;;4995594;28;20051;-79
2024/02/20 06:36:03;;;;;;;12.75;3.90;;;;;;;;;;4994093;28;20085;-78
2024/02/20 06:38:32;;;;;;;10.50;4.03;;;;;;;;;;4976433;28;20046;-78
2024/02/20 06:40:59;;;;;;;17.50;3.13;;;;;;;;;;4993758;28;20049;-78
2024/02/20 06:43:27;;;;;;;11.25;3.45;;;;;;;;;;4993059;28;20170;-78
2024/02/20 06:45:54;;;;;;;13.77;3.90;;;;;;;;;;4993546;28;20162;-78
2024/02/20 06:48:21;;;;;;;14.38;3.22;;;;;;;;;;4993240;28;20043;-78
2024/02/20 06:50:48;;;;;;;13.20;3.53;;;;;;;;;;4995150;28;20038;-78
2024/02/20 06:53:15;;;;;;;12.07;3.90;;;;;;;;;;4995175;28;20392;-78
2024/02/20 06:55:42;;;;;;;10.63;3.13;;;;;;;;;;4995451;28;20137;-79
2024/02/20 06:58:09;;;;;;;10.48;3.35;;;;;;;;;;4994943;28;20053;-78
2024/02/20 07:00:38;;;;;;;10.25;3.53;;;;;;;;;;4995547;28;20371;-79
2024/02/20 07:03:07;;;;;;;11.40;3.50;;;;;;;;;;4994655;28;20125;-79
2024/02/20 07:05:34;;;;;;;11.52;3.60;;;;;;;;;;4995502;28;20074;-77
2024/02/20 07:08:02;;;;;;;13.23;3.45;;;;;;;;;;4994761;28;20097;-78
2024/02/20 07:10:29;;;;;;;9.98;3.67;;;;;;;;;;4994846;28;20050;-78
2024/02/20 07:12:57;;;;;;;13.35;3.78;;;;;;;;;;4995319;28;20125;-79
2024/02/20 07:15:25;;;;;;;9.85;3.60;;;;;;;;;;4994601;28;20156;-79
2024/02/20 07:17:52;;;;;;;10.88;3.83;;;;;;;;;;4995268;28;20524;-79
2024/02/20 07:20:18;;;;;;;10.73;3.92;;;;;;;;;;4994771;28;20097;-79
2024/02/20 07:22:45;;;;;;;11.75;4.43;;;;;;;;;;4995165;28;20092;-78
2024/02/20 07:25:19;;;;;;;9.07;4.28;;;;;;;;;;4994571;28;20436;-77
2024/02/20 07:27:46;;;;;;;9.98;3.35;;;;;;;;;;4995078;28;20054;-78
2024/02/20 07:30:14;;;;;;;11.52;3.33;;;;;;;;;;4994465;28;20053;-78
2024/02/20 07:32:44;;;;;;;10.85;3.50;;;;;;;;;;4994878;28;20134;-78
2024/02/20 07:35:12;;;;;;;31.48;20.45;;;;;;;;;;4994012;28;20042;-77
2024/02/20 07:37:41;;;;;;;49.50;25.95;;;;;;;;;;4994800;28;20105;-79
2024/02/20 07:40:09;;;;;;;64.70;30.70;;;;;;;;;;4994026;28;20050;-77
2024/02/20 07:42:38;;;;;;;106.00;59.45;;;;;;;;;;4988919;28;20046;-77
2024/02/20 07:45:06;;;;;;;18.20;5.72;;;;;;;;;;4992349;28;20093;-78
2024/02/20 07:47:33;;;;;;;342.98;180.38;;;;;;;;;;4987856;28;20129;-77
2024/02/20 07:50:00;;;;;;;90.07;48.15;;;;;;;;;;4992224;28;20359;-79
2024/02/20 07:52:27;;;;;;;24.88;9.30;;;;;;;;;;4991868;28;20043;-79
2024/02/20 07:54:54;;;;;;;291.63;155.68;;;;;;;;;;4993645;28;20042;-80
2024/02/20 07:57:21;;;;;;;43.55;23.67;;;;;;;;;;4991435;28;20042;-77
2024/02/20 07:59:47;;;;;;;58.65;30.33;;;;;;;;;;4993027;28;20054;-78
2024/02/20 08:02:14;;;;;;;114.78;74.25;;;;;;;;;;4994011;28;20058;-79
2024/02/20 08:04:41;;;;;;;112.88;78.18;;;;;;;;;;4994386;28;20120;-79
2024/02/20 08:07:08;;;;;;;39.03;22.60;;;;;;;;;;4993873;28;20054;-79
2024/02/20 08:09:35;;;;;;;32.42;20.45;;;;;;;;;;4994067;28;20133;-79
2024/02/20 08:12:03;;;;;;;264.70;235.32;;;;;;;;;;4994308;28;20066;-79
2024/02/20 08:14:31;;;;;;;27.45;17.80;;;;;;;;;;4993939;28;20050;-79
2024/02/20 08:16:58;;;;;;;29.73;11.90;;;;;;;;;;4993917;28;20423;-78
2024/02/20 08:19:25;;;;;;;22.13;11.35;;;;;;;;;;4993817;28;20049;-79
2024/02/20 08:21:52;;;;;;;17.38;6.90;;;;;;;;;;4994098;28;20046;-79
2024/02/20 08:24:19;;;;;;;11.40;5.18;;;;;;;;;;4993511;28;20046;-78
2024/02/20 08:26:45;;;;;;;18.17;5.97;;;;;;;;;;4993711;28;20504;-80
2024/02/20 08:29:12;;;;;;;14.85;7.80;;;;;;;;;;4993238;28;20038;-79
2024/02/20 08:31:42;;;;;;;21.02;8.15;;;;;;;;;;4993712;28;20057;-79
2024/02/20 08:34:09;;;;;;;11.18;5.93;;;;;;;;;;4993232;28;20150;-79
2024/02/20 08:36:38;;;;;;;18.30;5.93;;;;;;;;;;4993793;28;20397;-79
2024/02/20 08:39:05;;;;;;;18.85;11.02;;;;;;;;;;4993231;28;20042;-77
2024/02/20 08:41:32;;;;;;;13.73;7.40;;;;;;;;;;4993706;28;20130;-79
2024/02/20 08:43:59;;;;;;;20.73;7.40;;;;;;;;;;4992498;28;20097;-78
2024/02/20 08:46:26;;;;;;;13.68;6.93;;;;;;;;;;4992911;28;20377;-79
2024/02/20 08:48:53;;;;;;;27.05;12.10;;;;;;;;;;4993423;28;20470;-79
2024/02/20 08:51:20;;;;;;;22.63;8.20;;;;;;;;;;4992944;28;20042;-78
2024/02/20 08:53:46;;;;;;;19.63;12.25;;;;;;;;;;4993489;28;20149;-79
2024/02/20 08:56:14;;;;;;;26.58;8.35;;;;;;;;;;4992899;28;20038;-79
2024/02/20 08:58:40;;;;;;;20.85;8.07;;;;;;;;;;4993584;28;20043;-78
2024/02/20 09:01:08;;;;;;;21.20;8.70;;;;;;;;;;4993021;28;20046;-79
2024/02/20 09:03:38;;;;;;;27.58;8.82;;;;;;;;;;4993329;28;20093;-78
2024/02/20 09:06:05;;;;;;;27.42;9.18;;;;;;;;;;4992914;28;20039;-78
2024/02/20 09:08:32;;;;;;;33.65;10.68;;;;;;;;;;4993262;28;20477;-79
2024/02/20 09:11:03;;;;;;;31.05;11.65;;;;;;;;;;4993279;28;20053;-78
2024/02/20 09:13:34;;;;;;;28.45;12.43;;;;;;;;;;4993110;28;20050;-78
2024/02/20 09:16:02;;;;;;;47.80;17.33;;;;;;;;;;4993246;28;20042;-78
2024/02/20 09:18:33;;;;;;;46.72;19.50;;;;;;;;;;4992814;28;20051;-79
2024/02/20 09:21:01;;;;;;;47.03;19.08;;;;;;;;;;4993122;28;20046;-78
2024/02/20 09:23:28;;;;;;;30.80;12.10;;;;;;;;;;4992715;28;20039;-79
2024/02/20 09:25:54;;;;;;;44.63;17.50;;;;;;;;;;4993060;28;20474;-78
2024/02/20 09:28:21;;;;;;;27.27;11.55;;;;;;;;;;4992520;28;20042;-78
2024/02/20 09:30:48;;;;;;;31.63;15.05;;;;;;;;;;4993219;28;20061;-79
2024/02/20 09:33:18;;;;;;;32.53;14.00;;;;;;;;;;4996039;28;20069;-79
2024/02/20 09:35:44;;;;;;;28.15;10.85;;;;;;;;;;4996970;28;20050;-78
2024/02/20 09:38:12;;;;;;;30.63;10.45;;;;;;;;;;4996437;28;20043;-79
2024/02/20 09:40:39;;;;;;;29.35;11.75;;;;;;;;;;4996836;28;20359;-79
2024/02/20 09:43:08;;;;;;;26.63;11.02;;;;;;;;;;4996415;28;20053;-79
2024/02/20 09:45:40;;;;;;;26.38;10.90;;;;;;;;;;4996699;28;20058;-77
2024/02/20 09:48:09;;;;;;;25.95;9.55;;;;;;;;;;4996311;28;20153;-78
2024/02/20 09:50:41;;;;;;;27.65;8.52;;;;;;;;;;4996761;28;20046;-79
2024/02/20 09:53:07;;;;;;;19.95;7.75;;;;;;;;;;4996349;28;20531;-79
2024/02/20 09:55:34;;;;;;;14.30;5.20;;;;;;;;;;4996392;28;20038;-79
2024/02/20 09:58:01;;;;;;;16.17;5.53;;;;;;;;;;4996650;28;20046;-79
2024/02/20 10:00:28;;;;;;;18.13;5.47;;;;;;;;;;4996176;28;20101;-79
2024/02/20 10:02:57;;;;;;;15.70;3.78;;;;;;;;;;4996406;28;20053;-79
2024/02/20 10:05:26;;;;;;;13.65;4.13;;;;;;;;;;4995828;28;20039;-79
2024/02/20 10:08:00;;;;;;;6.32;1.60;;;;;;;;;;4979218;28;20050;-79
2024/02/20 10:10:31;;;;;;;5.90;1.60;;;;;;;;;;4995493;28;20109;-79
2024/02/20 10:12:59;;;;;;;3.80;1.20;;;;;;;;;;4996336;28;20121;-80
2024/02/20 10:15:26;;;;;;;4.18;1.10;;;;;;;;;;4995735;28;20044;-80
2024/02/20 10:18:01;;;;;;;5.38;1.30;;;;;;;;;;4996060;28;20477;-79
2024/02/20 10:20:29;;;;;;;4.82;0.77;;;;;;;;;;4995568;28;20050;-80
2024/02/20 10:23:09;;;;;;;2.50;0.98;;;;;;;;;;4996164;28;20042;-79
2024/02/20 10:25:37;;;;;;;0.70;0.50;;;;;;;;;;4995692;28;20050;-79
2024/02/20 10:28:05;;;;;;;3.73;0.63;;;;;;;;;;4995769;28;20038;-78
2024/02/20 10:30:33;;;;;;;3.10;0.43;;;;;;;;;;4995999;28;20046;-80
2024/02/20 10:33:00;;;;;;;3.05;0.80;;;;;;;;;;4996003;28;20050;-78
2024/02/20 10:35:27;;;;;;;3.00;0.45;;;;;;;;;;4995271;28;20081;-79
2024/02/20 10:38:02;;;;;;;2.03;0.60;;;;;;;;;;4996065;28;20373;-78
2024/02/20 10:40:30;;;;;;;3.55;0.77;;;;;;;;;;4994293;28;20050;-77
2024/02/20 10:42:58;;;;;;;1.98;0.50;;;;;;;;;;4994827;28;20042;-80
2024/02/20 10:45:26;;;;;;;2.40;0.90;;;;;;;;;;4994950;28;20054;-78
2024/02/20 10:47:58;;;;;;;1.27;0.60;;;;;;;;;;4995584;28;20489;-79
2024/02/20 10:50:26;;;;;;;1.85;0.50;;;;;;;;;;4995174;28;20054;-79
2024/02/20 10:52:53;;;;;;;1.70;0.60;;;;;;;;;;4995504;28;20105;-79
2024/02/20 10:55:21;;;;;;;3.08;0.50;;;;;;;;;;4995091;28;20055;-78
2024/02/20 10:58:00;;;;;;;3.33;0.60;;;;;;;;;;4995491;28;20133;-79
2024/02/20 11:00:32;;;;;;;2.55;0.60;;;;;;;;;;4995016;28;20286;-78
2024/02/20 11:03:00;;;;;;;4.57;0.50;;;;;;;;;;4995457;28;20042;-78
2024/02/20 11:05:29;;;;;;;4.43;0.60;;;;;;;;;;4994939;28;20050;-78
2024/02/20 11:08:25;;;;;;;6.75;1.50;;;;;;;;;;4979050;28;20129;-79
2024/02/20 11:10:52;;;;;;;2.15;0.82;;;;;;;;;;4993204;28;20089;-79
2024/02/20 11:13:28;;;;;;;6.30;1.40;;;;;;;;;;4994934;28;20544;-78
2024/02/20 11:15:55;;;;;;;2.92;1.00;;;;;;;;;;4995401;28;20398;-78
2024/02/20 11:18:24;;;;;;;7.45;0.95;;;;;;;;;;4994684;28;20050;-79
2024/02/20 11:21:02;;;;;;;4.38;1.00;;;;;;;;;;4995063;28;20050;-78
2024/02/20 11:23:32;;;;;;;2.05;0.80;;;;;;;;;;4994665;28;20057;-79
2024/02/20 11:26:07;;;;;;;5.68;0.80;;;;;;;;;;4995012;28;20070;-78
2024/02/20 11:28:35;;;;;;;4.25;0.82;;;;;;;;;;4994796;28;20066;-79
2024/02/20 11:31:04;;;;;;;5.30;1.25;;;;;;;;;;4994853;28;20053;-78
2024/02/20 11:33:31;;;;;;;14.52;9.18;;;;;;;;;;4989491;28;20469;-78
2024/02/20 11:35:59;;;;;;;2.83;2.35;;;;;;;;;;4993417;28;20078;-79
2024/02/20 11:38:28;;;;;;;7.22;4.30;;;;;;;;;;4991780;28;20038;-79
2024/02/20 11:40:56;;;;;;;12.27;8.23;;;;;;;;;;4992004;28;20540;-79
2024/02/20 11:43:23;;;;;;;9.70;6.28;;;;;;;;;;4992758;28;20389;-80
2024/02/20 11:45:58;;;;;;;38.00;27.80;;;;;;;;;;4993075;28;20038;-77
2024/02/20 11:48:25;;;;;;;13.77;8.73;;;;;;;;;;4991632;28;20046;-78
2024/02/20 11:50:59;;;;;;;28.30;22.42;;;;;;;;;;4993020;28;20161;-78
2024/02/20 11:53:26;;;;;;;177.43;94.00;;;;;;;;;;4992781;28;20053;-78
2024/02/20 11:55:54;;;;;;;4.75;2.88;;;;;;;;;;4991568;28;20051;-78
2024/02/20 11:58:23;;;;;;;10.43;7.00;;;;;;;;;;4991138;28;20096;-78
2024/02/20 12:01:02;;;;;;;6.35;2.75;;;;;;;;;;4992890;28;20073;-78
2024/02/20 12:03:35;;;;;;;9.98;7.40;;;;;;;;;;4992785;28;20481;-78
2024/02/20 12:06:08;;;;;;;18.65;15.30;;;;;;;;;;4992204;28;20068;-77
2024/02/20 12:08:43;;;;;;;7.93;2.90;;;;;;;;;;4992811;28;20100;-78
2024/02/20 12:11:16;;;;;;;13.52;5.78;;;;;;;;;;4992256;28;20041;-78
2024/02/20 12:13:46;;;;;;;5.65;2.60;;;;;;;;;;4992759;28;20056;-78
2024/02/20 12:16:26;;;;;;;11.32;4.70;;;;;;;;;;4991823;28;20042;-78
2024/02/20 12:18:56;;;;;;;8.95;4.45;;;;;;;;;;4992565;28;20046;-78
2024/02/20 12:21:38;;;;;;;13.95;4.18;;;;;;;;;;4993432;28;20054;-79
2024/02/20 12:24:08;;;;;;;11.25;3.90;;;;;;;;;;4992089;28;20049;-77
2024/02/20 12:26:35;;;;;;;12.85;4.20;;;;;;;;;;4993994;28;20042;-77
2024/02/20 12:29:02;;;;;;;10.77;3.42;;;;;;;;;;4993909;28;20402;-79
2024/02/20 12:31:32;;;;;;;8.90;2.97;;;;;;;;;;4993668;28;20104;-78
2024/02/20 12:34:02;;;;;;;8.02;3.30;;;;;;;;;;4993739;28;20052;-77
2024/02/20 12:36:30;;;;;;;14.80;5.20;;;;;;;;;;4993648;28;20066;-79
2024/02/20 12:38:59;;;;;;;14.68;5.30;;;;;;;;;;4993819;28;20049;-77
2024/02/20 12:41:26;;;;;;;12.63;4.53;;;;;;;;;;4972690;28;20097;-78
2024/02/20 12:43:53;;;;;;;15.02;4.50;;;;;;;;;;4974417;28;20101;-78
2024/02/20 12:46:20;;;;;;;12.10;4.45;;;;;;;;;;4973674;28;20055;-77
2024/02/20 12:48:54;;;;;;;12.38;3.78;;;;;;;;;;4974272;28;20046;-77
2024/02/20 12:51:23;;;;;;;14.88;3.90;;;;;;;;;;4973870;28;20050;-80
2024/02/20 12:53:50;;;;;;;10.35;3.90;;;;;;;;;;4974394;28;20105;-78
2024/02/20 12:56:17;;;;;;;14.48;4.18;;;;;;;;;;4973598;28;20481;-77
2024/02/20 12:58:44;;;;;;;12.75;3.88;;;;;;;;;;4974131;28;20057;-78
2024/02/20 13:01:13;;;;;;;8.13;3.75;;;;;;;;;;4973831;28;20070;-77
2024/02/20 13:03:41;;;;;;;11.43;4.50;;;;;;;;;;4974053;28;20402;-77
2024/02/20 13:06:08;;;;;;;14.98;5.40;;;;;;;;;;4973014;28;20374;-79
2024/02/20 13:08:35;;;;;;;13.82;5.40;;;;;;;;;;4974076;28;20418;-79
2024/02/20 13:11:01;;;;;;;10.45;4.68;;;;;;;;;;4973763;28;20425;-77
2024/02/20 13:13:28;;;;;;;12.23;4.60;;;;;;;;;;4973474;28;20138;-78
2024/02/20 13:15:55;;;;;;;21.42;5.82;;;;;;;;;;4974092;28;20047;-79
2024/02/20 13:18:22;;;;;;;13.75;5.45;;;;;;;;;;4973511;28;20476;-78
2024/02/20 13:20:49;;;;;;;12.15;3.10;;;;;;;;;;4973920;28;20065;-78
2024/02/20 13:23:16;;;;;;;13.93;4.00;;;;;;;;;;4973461;28;20039;-78
2024/02/20 13:25:43;;;;;;;21.15;5.10;;;;;;;;;;4985826;28;20057;-77
2024/02/20 13:28:11;;;;;;;12.18;5.60;;;;;;;;;;4992626;28;20053;-78
2024/02/20 13:30:38;;;;;;;13.02;4.32;;;;;;;;;;4993124;28;20049;-79
2024/02/20 13:33:05;;;;;;;19.77;6.22;;;;;;;;;;4992701;28;20050;-78
2024/02/20 13:35:33;;;;;;;21.77;6.15;;;;;;;;;;4993063;28;20043;-79
2024/02/20 13:38:00;;;;;;;21.80;5.85;;;;;;;;;;4993269;28;20057;-78
2024/02/20 13:40:27;;;;;;;24.98;6.22;;;;;;;;;;4992426;28;21070;-78
2024/02/20 13:42:54;;;;;;;17.23;5.45;;;;;;;;;;4993064;28;20046;-79
2024/02/20 13:45:23;;;;;;;17.13;7.15;;;;;;;;;;4992631;28;20444;-78
2024/02/20 13:47:50;;;;;;;16.17;4.93;;;;;;;;;;4993372;28;20137;-79
2024/02/20 13:50:17;;;;;;;16.17;5.60;;;;;;;;;;4992494;28;20046;-77
2024/02/20 13:52:44;;;;;;;14.90;5.47;;;;;;;;;;4993111;28;20097;-78
2024/02/20 13:55:14;;;;;;;18.70;4.93;;;;;;;;;;4992706;28;20039;-77
2024/02/20 13:57:40;;;;;;;12.57;5.10;;;;;;;;;;4993011;28;20051;-77
2024/02/20 14:00:08;;;;;;;17.35;4.82;;;;;;;;;;4992569;28;20050;-77
2024/02/20 14:02:35;;;;;;;19.40;4.80;;;;;;;;;;4993037;28;20070;-78
2024/02/20 14:05:02;;;;;;;16.77;4.40;;;;;;;;;;4992924;28;20394;-78
2024/02/20 14:07:30;;;;;;;24.88;6.60;;;;;;;;;;4992397;28;20465;-79
2024/02/20 14:09:57;;;;;;;18.45;6.25;;;;;;;;;;4991660;28;20046;-79
2024/02/20 14:12:24;;;;;;;23.42;5.95;;;;;;;;;;4992157;28;20054;-77
2024/02/20 14:14:52;;;;;;;16.52;5.05;;;;;;;;;;4992891;28;20062;-78
2024/02/20 14:17:22;;;;;;;22.92;6.57;;;;;;;;;;4992609;28;20046;-77
2024/02/20 14:19:49;;;;;;;16.67;5.90;;;;;;;;;;4996267;28;20051;-77
2024/02/20 14:22:16;;;;;;;16.90;5.65;;;;;;;;;;4995632;28;20046;-79
2024/02/20 14:24:43;;;;;;;17.77;4.95;;;;;;;;;;4996125;28;20507;-78
2024/02/20 14:27:10;;;;;;;17.25;4.80;;;;;;;;;;4995866;28;20058;-78
2024/02/20 14:29:37;;;;;;;17.73;5.18;;;;;;;;;;4978988;28;20045;-78
2024/02/20 14:32:05;;;;;;;21.65;4.70;;;;;;;;;;4995700;28;20058;-77
2024/02/20 14:34:33;;;;;;;17.83;4.40;;;;;;;;;;4995844;28;20068;-78
2024/02/20 14:37:01;;;;;;;17.35;4.35;;;;;;;;;;4996089;28;20109;-78
2024/02/20 14:39:28;;;;;;;10.32;3.42;;;;;;;;;;4995639;28;20046;-79